sensor_id;sensor_type;location;lat;lon;timestamp;P1;durP1;ratioP1;P2;durP2;ratioP2
13805;SDS011;6974;53.606;9.872;2023-07-24T00:01:12;5.23;;;4.67;;
13805;SDS011;6974;53.606;9.872;2023-07-24T00:03:39;5.00;;;4.50;;
13805;SDS011;6974;53.606;9.872;2023-07-24T00:06:06;4.60;;;4.20;;
13805;SDS011;6974;53.606;9.872;2023-07-24T00:08:35;4.87;;;4.47;;
13805;SDS011;6974;53.606;9.872;2023-07-24T00:11:02;4.40;;;4.00;;
13805;SDS011;6974;53.606;9.872;2023-07-24T00:13:30;5.30;;;4.80;;
13805;SDS011;6974;53.606;9.872;2023-07-24T00:15:57;4.87;;;4.47;;
13805;SDS011;6974;53.606;9.872;2023-07-24T00:18:24;5.17;;;4.40;;
13805;SDS011;6974;53.606;9.872;2023-07-24T00:20:51;4.80;;;4.30;;
13805;SDS011;6974;53.606;9.872;2023-07-24T00:23:17;5.17;;;4.43;;
13805;SDS011;6974;53.606;9.872;2023-07-24T00:25:46;4.77;;;4.37;;
13805;SDS011;6974;53.606;9.872;2023-07-24T00:28:12;5.07;;;4.57;;
13805;SDS011;6974;53.606;9.872;2023-07-24T00:30:39;4.60;;;4.20;;
13805;SDS011;6974;53.606;9.872;2023-07-24T00:33:06;4.63;;;4.23;;
13805;SDS011;6974;53.606;9.872;2023-07-24T00:35:33;4.93;;;4.40;;
13805;SDS011;6974;53.606;9.872;2023-07-24T00:38:00;7.20;;;4.50;;
13805;SDS011;6974;53.606;9.872;2023-07-24T00:40:27;4.97;;;4.47;;
13805;SDS011;6974;53.606;9.872;2023-07-24T00:42:55;5.03;;;4.53;;
13805;SDS011;6974;53.606;9.872;2023-07-24T00:45:22;5.13;;;4.33;;
13805;SDS011;6974;53.606;9.872;2023-07-24T00:47:49;5.70;;;4.27;;
13805;SDS011;6974;53.606;9.872;2023-07-24T00:50:16;5.10;;;4.70;;
13805;SDS011;6974;53.606;9.872;2023-07-24T00:52:44;5.07;;;4.67;;
13805;SDS011;6974;53.606;9.872;2023-07-24T00:55:11;4.60;;;4.20;;
13805;SDS011;6974;53.606;9.872;2023-07-24T00:57:41;5.77;;;4.80;;
13805;SDS011;6974;53.606;9.872;2023-07-24T01:00:10;5.50;;;5.00;;
13805;SDS011;6974;53.606;9.872;2023-07-24T01:02:37;5.30;;;4.80;;
13805;SDS011;6974;53.606;9.872;2023-07-24T01:05:04;5.17;;;4.70;;
13805;SDS011;6974;53.606;9.872;2023-07-24T01:07:32;5.90;;;5.30;;
13805;SDS011;6974;53.606;9.872;2023-07-24T01:09:59;5.40;;;5.00;;
13805;SDS011;6974;53.606;9.872;2023-07-24T01:12:27;5.20;;;4.77;;
13805;SDS011;6974;53.606;9.872;2023-07-24T01:15:01;6.67;;;5.37;;
13805;SDS011;6974;53.606;9.872;2023-07-24T01:17:33;6.97;;;6.27;;
13805;SDS011;6974;53.606;9.872;2023-07-24T01:20:06;5.80;;;5.30;;
13805;SDS011;6974;53.606;9.872;2023-07-24T01:22:38;5.93;;;5.33;;
13805;SDS011;6974;53.606;9.872;2023-07-24T01:25:10;6.40;;;5.80;;
13805;SDS011;6974;53.606;9.872;2023-07-24T01:27:45;6.10;;;5.60;;
13805;SDS011;6974;53.606;9.872;2023-07-24T01:30:13;6.20;;;5.40;;
13805;SDS011;6974;53.606;9.872;2023-07-24T01:32:43;5.37;;;4.97;;
13805;SDS011;6974;53.606;9.872;2023-07-24T01:35:10;6.07;;;5.50;;
13805;SDS011;6974;53.606;9.872;2023-07-24T01:37:37;5.50;;;5.10;;
13805;SDS011;6974;53.606;9.872;2023-07-24T01:40:06;5.70;;;5.20;;
13805;SDS011;6974;53.606;9.872;2023-07-24T01:42:33;6.13;;;5.63;;
13805;SDS011;6974;53.606;9.872;2023-07-24T01:45:03;5.77;;;5.27;;
13805;SDS011;6974;53.606;9.872;2023-07-24T01:47:30;5.90;;;5.23;;
13805;SDS011;6974;53.606;9.872;2023-07-24T01:49:59;5.50;;;5.00;;
13805;SDS011;6974;53.606;9.872;2023-07-24T01:52:25;5.90;;;5.40;;
13805;SDS011;6974;53.606;9.872;2023-07-24T01:54:52;5.40;;;4.90;;
13805;SDS011;6974;53.606;9.872;2023-07-24T01:57:19;5.70;;;5.20;;
13805;SDS011;6974;53.606;9.872;2023-07-24T01:59:46;4.60;;;4.30;;
13805;SDS011;6974;53.606;9.872;2023-07-24T02:02:15;5.80;;;5.13;;
13805;SDS011;6974;53.606;9.872;2023-07-24T02:04:42;5.67;;;5.17;;
13805;SDS011;6974;53.606;9.872;2023-07-24T02:07:09;5.80;;;5.23;;
13805;SDS011;6974;53.606;9.872;2023-07-24T02:09:35;5.90;;;5.40;;
13805;SDS011;6974;53.606;9.872;2023-07-24T02:12:03;6.47;;;5.67;;
13805;SDS011;6974;53.606;9.872;2023-07-24T02:14:30;6.40;;;5.90;;
13805;SDS011;6974;53.606;9.872;2023-07-24T02:16:57;5.70;;;5.10;;
13805;SDS011;6974;53.606;9.872;2023-07-24T02:19:25;5.73;;;5.23;;
13805;SDS011;6974;53.606;9.872;2023-07-24T02:21:52;5.97;;;5.47;;
13805;SDS011;6974;53.606;9.872;2023-07-24T02:24:19;7.40;;;6.70;;
13805;SDS011;6974;53.606;9.872;2023-07-24T02:26:45;7.37;;;6.67;;
13805;SDS011;6974;53.606;9.872;2023-07-24T02:29:12;7.30;;;6.60;;
13805;SDS011;6974;53.606;9.872;2023-07-24T02:31:39;8.00;;;7.20;;
13805;SDS011;6974;53.606;9.872;2023-07-24T02:34:06;7.80;;;7.00;;
13805;SDS011;6974;53.606;9.872;2023-07-24T02:36:34;8.17;;;7.47;;
13805;SDS011;6974;53.606;9.872;2023-07-24T02:39:01;8.17;;;7.47;;
13805;SDS011;6974;53.606;9.872;2023-07-24T02:41:28;7.77;;;6.97;;
13805;SDS011;6974;53.606;9.872;2023-07-24T02:43:55;7.97;;;7.37;;
13805;SDS011;6974;53.606;9.872;2023-07-24T02:46:22;8.43;;;7.73;;
13805;SDS011;6974;53.606;9.872;2023-07-24T02:48:49;8.43;;;7.73;;
13805;SDS011;6974;53.606;9.872;2023-07-24T02:51:16;8.87;;;8.10;;
13805;SDS011;6974;53.606;9.872;2023-07-24T02:53:44;9.23;;;8.43;;
13805;SDS011;6974;53.606;9.872;2023-07-24T02:56:11;9.93;;;8.93;;
13805;SDS011;6974;53.606;9.872;2023-07-24T02:58:38;9.27;;;8.47;;
13805;SDS011;6974;53.606;9.872;2023-07-24T03:01:05;8.77;;;8.00;;
13805;SDS011;6974;53.606;9.872;2023-07-24T03:03:33;8.40;;;7.60;;
13805;SDS011;6974;53.606;9.872;2023-07-24T03:06:01;8.03;;;6.80;;
13805;SDS011;6974;53.606;9.872;2023-07-24T03:08:28;7.43;;;6.80;;
13805;SDS011;6974;53.606;9.872;2023-07-24T03:10:56;7.33;;;6.63;;
13805;SDS011;6974;53.606;9.872;2023-07-24T03:13:23;7.60;;;6.77;;
13805;SDS011;6974;53.606;9.872;2023-07-24T03:15:53;7.37;;;6.60;;
13805;SDS011;6974;53.606;9.872;2023-07-24T03:18:21;7.83;;;7.03;;
13805;SDS011;6974;53.606;9.872;2023-07-24T03:20:48;8.07;;;6.90;;
13805;SDS011;6974;53.606;9.872;2023-07-24T03:23:15;7.27;;;6.57;;
13805;SDS011;6974;53.606;9.872;2023-07-24T03:25:42;6.77;;;5.80;;
13805;SDS011;6974;53.606;9.872;2023-07-24T03:28:10;5.77;;;5.27;;
13805;SDS011;6974;53.606;9.872;2023-07-24T03:30:37;7.13;;;6.23;;
13805;SDS011;6974;53.606;9.872;2023-07-24T03:33:04;6.43;;;5.90;;
13805;SDS011;6974;53.606;9.872;2023-07-24T03:35:31;6.87;;;6.30;;
13805;SDS011;6974;53.606;9.872;2023-07-24T03:37:58;6.40;;;5.80;;
13805;SDS011;6974;53.606;9.872;2023-07-24T03:40:25;6.70;;;6.00;;
13805;SDS011;6974;53.606;9.872;2023-07-24T03:42:52;6.43;;;5.80;;
13805;SDS011;6974;53.606;9.872;2023-07-24T03:45:20;6.47;;;5.87;;
13805;SDS011;6974;53.606;9.872;2023-07-24T03:47:47;6.80;;;6.10;;
13805;SDS011;6974;53.606;9.872;2023-07-24T03:50:14;6.37;;;5.77;;
13805;SDS011;6974;53.606;9.872;2023-07-24T03:52:41;6.60;;;5.97;;
13805;SDS011;6974;53.606;9.872;2023-07-24T03:55:08;7.10;;;6.47;;
13805;SDS011;6974;53.606;9.872;2023-07-24T03:57:35;8.83;;;5.77;;
13805;SDS011;6974;53.606;9.872;2023-07-24T04:00:02;6.50;;;5.83;;
13805;SDS011;6974;53.606;9.872;2023-07-24T04:02:31;7.50;;;6.80;;
13805;SDS011;6974;53.606;9.872;2023-07-24T04:04:58;7.07;;;6.37;;
13805;SDS011;6974;53.606;9.872;2023-07-24T04:07:24;6.97;;;5.93;;
13805;SDS011;6974;53.606;9.872;2023-07-24T04:09:51;6.57;;;5.97;;
13805;SDS011;6974;53.606;9.872;2023-07-24T04:12:19;6.73;;;6.13;;
13805;SDS011;6974;53.606;9.872;2023-07-24T04:14:46;6.43;;;5.80;;
13805;SDS011;6974;53.606;9.872;2023-07-24T04:17:13;6.63;;;6.03;;
13805;SDS011;6974;53.606;9.872;2023-07-24T04:19:42;6.67;;;6.07;;
13805;SDS011;6974;53.606;9.872;2023-07-24T04:22:09;6.60;;;5.97;;
13805;SDS011;6974;53.606;9.872;2023-07-24T04:24:35;7.07;;;6.37;;
13805;SDS011;6974;53.606;9.872;2023-07-24T04:27:03;6.50;;;5.80;;
13805;SDS011;6974;53.606;9.872;2023-07-24T04:29:30;6.67;;;5.97;;
13805;SDS011;6974;53.606;9.872;2023-07-24T04:31:57;6.30;;;5.70;;
13805;SDS011;6974;53.606;9.872;2023-07-24T04:34:23;6.90;;;6.30;;
13805;SDS011;6974;53.606;9.872;2023-07-24T04:36:52;6.87;;;6.27;;
13805;SDS011;6974;53.606;9.872;2023-07-24T04:39:18;8.30;;;6.67;;
13805;SDS011;6974;53.606;9.872;2023-07-24T04:41:45;10.93;;;6.53;;
13805;SDS011;6974;53.606;9.872;2023-07-24T04:44:12;6.43;;;5.93;;
13805;SDS011;6974;53.606;9.872;2023-07-24T04:46:39;8.17;;;6.27;;
13805;SDS011;6974;53.606;9.872;2023-07-24T04:49:07;6.70;;;6.10;;
13805;SDS011;6974;53.606;9.872;2023-07-24T04:51:33;6.80;;;6.20;;
13805;SDS011;6974;53.606;9.872;2023-07-24T04:54:02;7.13;;;6.37;;
13805;SDS011;6974;53.606;9.872;2023-07-24T04:56:29;7.43;;;6.47;;
13805;SDS011;6974;53.606;9.872;2023-07-24T04:58:55;6.40;;;5.80;;
13805;SDS011;6974;53.606;9.872;2023-07-24T05:01:22;6.77;;;6.07;;
13805;SDS011;6974;53.606;9.872;2023-07-24T05:03:49;6.40;;;5.60;;
13805;SDS011;6974;53.606;9.872;2023-07-24T05:06:16;6.50;;;5.63;;
13805;SDS011;6974;53.606;9.872;2023-07-24T05:08:43;6.90;;;6.30;;
13805;SDS011;6974;53.606;9.872;2023-07-24T05:11:11;6.10;;;5.50;;
13805;SDS011;6974;53.606;9.872;2023-07-24T05:13:38;6.67;;;6.00;;
13805;SDS011;6974;53.606;9.872;2023-07-24T05:16:04;6.93;;;6.27;;
13805;SDS011;6974;53.606;9.872;2023-07-24T05:18:31;6.77;;;6.17;;
13805;SDS011;6974;53.606;9.872;2023-07-24T05:20:58;7.00;;;6.40;;
13805;SDS011;6974;53.606;9.872;2023-07-24T05:23:25;7.20;;;6.50;;
13805;SDS011;6974;53.606;9.872;2023-07-24T05:25:56;6.60;;;6.00;;
13805;SDS011;6974;53.606;9.872;2023-07-24T05:28:25;7.90;;;7.10;;
13805;SDS011;6974;53.606;9.872;2023-07-24T05:30:52;7.57;;;6.87;;
13805;SDS011;6974;53.606;9.872;2023-07-24T05:33:19;7.50;;;6.37;;
13805;SDS011;6974;53.606;9.872;2023-07-24T05:35:46;7.13;;;6.43;;
13805;SDS011;6974;53.606;9.872;2023-07-24T05:38:14;7.17;;;6.50;;
13805;SDS011;6974;53.606;9.872;2023-07-24T05:40:41;6.90;;;6.30;;
13805;SDS011;6974;53.606;9.872;2023-07-24T05:43:07;6.83;;;6.23;;
13805;SDS011;6974;53.606;9.872;2023-07-24T05:45:36;6.63;;;6.03;;
13805;SDS011;6974;53.606;9.872;2023-07-24T05:48:03;7.10;;;6.40;;
13805;SDS011;6974;53.606;9.872;2023-07-24T05:50:30;5.87;;;5.37;;
13805;SDS011;6974;53.606;9.872;2023-07-24T05:52:56;7.40;;;6.33;;
13805;SDS011;6974;53.606;9.872;2023-07-24T05:55:23;6.67;;;6.07;;
13805;SDS011;6974;53.606;9.872;2023-07-24T05:57:50;6.60;;;5.83;;
13805;SDS011;6974;53.606;9.872;2023-07-24T06:00:17;8.93;;;6.90;;
13805;SDS011;6974;53.606;9.872;2023-07-24T06:02:45;8.20;;;7.40;;
13805;SDS011;6974;53.606;9.872;2023-07-24T06:05:12;7.97;;;7.23;;
13805;SDS011;6974;53.606;9.872;2023-07-24T06:07:39;7.47;;;6.77;;
13805;SDS011;6974;53.606;9.872;2023-07-24T06:10:06;7.70;;;6.90;;
13805;SDS011;6974;53.606;9.872;2023-07-24T06:12:34;7.03;;;6.43;;
13805;SDS011;6974;53.606;9.872;2023-07-24T06:15:00;6.63;;;6.03;;
13805;SDS011;6974;53.606;9.872;2023-07-24T06:17:28;7.73;;;6.23;;
13805;SDS011;6974;53.606;9.872;2023-07-24T06:19:56;8.23;;;7.53;;
13805;SDS011;6974;53.606;9.872;2023-07-24T06:22:23;7.43;;;6.83;;
13805;SDS011;6974;53.606;9.872;2023-07-24T06:24:50;8.27;;;7.50;;
13805;SDS011;6974;53.606;9.872;2023-07-24T06:27:17;8.00;;;7.40;;
13805;SDS011;6974;53.606;9.872;2023-07-24T06:29:43;8.10;;;7.33;;
13805;SDS011;6974;53.606;9.872;2023-07-24T06:32:10;8.60;;;7.03;;
13805;SDS011;6974;53.606;9.872;2023-07-24T06:34:37;7.70;;;6.87;;
13805;SDS011;6974;53.606;9.872;2023-07-24T06:37:05;7.60;;;6.80;;
13805;SDS011;6974;53.606;9.872;2023-07-24T06:39:32;7.40;;;6.77;;
13805;SDS011;6974;53.606;9.872;2023-07-24T06:41:59;7.30;;;6.67;;
13805;SDS011;6974;53.606;9.872;2023-07-24T06:44:26;7.97;;;7.23;;
13805;SDS011;6974;53.606;9.872;2023-07-24T06:46:53;7.47;;;6.73;;
13805;SDS011;6974;53.606;9.872;2023-07-24T06:49:19;7.47;;;6.77;;
13805;SDS011;6974;53.606;9.872;2023-07-24T06:51:46;7.07;;;6.40;;
13805;SDS011;6974;53.606;9.872;2023-07-24T06:54:14;7.57;;;6.87;;
13805;SDS011;6974;53.606;9.872;2023-07-24T06:56:41;7.50;;;6.83;;
13805;SDS011;6974;53.606;9.872;2023-07-24T06:59:08;7.70;;;7.00;;
13805;SDS011;6974;53.606;9.872;2023-07-24T07:01:35;7.27;;;6.57;;
13805;SDS011;6974;53.606;9.872;2023-07-24T07:04:02;6.90;;;6.27;;
13805;SDS011;6974;53.606;9.872;2023-07-24T07:06:28;7.53;;;6.90;;
13805;SDS011;6974;53.606;9.872;2023-07-24T07:08:55;6.87;;;6.27;;
13805;SDS011;6974;53.606;9.872;2023-07-24T07:11:24;7.70;;;7.00;;
13805;SDS011;6974;53.606;9.872;2023-07-24T07:13:50;7.97;;;7.17;;
13805;SDS011;6974;53.606;9.872;2023-07-24T07:16:17;7.43;;;6.83;;
13805;SDS011;6974;53.606;9.872;2023-07-24T07:18:44;8.07;;;7.33;;
13805;SDS011;6974;53.606;9.872;2023-07-24T07:21:11;8.30;;;7.60;;
13805;SDS011;6974;53.606;9.872;2023-07-24T07:23:38;8.30;;;7.53;;
13805;SDS011;6974;53.606;9.872;2023-07-24T07:26:05;8.30;;;7.50;;
13805;SDS011;6974;53.606;9.872;2023-07-24T07:28:33;7.90;;;7.30;;
13805;SDS011;6974;53.606;9.872;2023-07-24T07:31:00;8.60;;;7.90;;
13805;SDS011;6974;53.606;9.872;2023-07-24T07:33:27;8.37;;;7.63;;
13805;SDS011;6974;53.606;9.872;2023-07-24T07:35:54;8.23;;;7.53;;
13805;SDS011;6974;53.606;9.872;2023-07-24T07:38:21;8.10;;;7.40;;
13805;SDS011;6974;53.606;9.872;2023-07-24T07:40:49;7.63;;;7.03;;
13805;SDS011;6974;53.606;9.872;2023-07-24T07:43:16;9.10;;;8.30;;
13805;SDS011;6974;53.606;9.872;2023-07-24T07:45:44;8.50;;;7.80;;
13805;SDS011;6974;53.606;9.872;2023-07-24T07:48:12;8.20;;;7.50;;
13805;SDS011;6974;53.606;9.872;2023-07-24T07:50:39;7.47;;;6.87;;
13805;SDS011;6974;53.606;9.872;2023-07-24T07:53:06;8.70;;;8.00;;
13805;SDS011;6974;53.606;9.872;2023-07-24T07:55:32;8.07;;;7.37;;
13805;SDS011;6974;53.606;9.872;2023-07-24T07:57:59;8.43;;;7.73;;
13805;SDS011;6974;53.606;9.872;2023-07-24T08:00:26;9.53;;;8.63;;
13805;SDS011;6974;53.606;9.872;2023-07-24T08:02:54;7.77;;;7.17;;
13805;SDS011;6974;53.606;9.872;2023-07-24T08:05:21;8.73;;;7.93;;
13805;SDS011;6974;53.606;9.872;2023-07-24T08:07:48;8.27;;;7.47;;
13805;SDS011;6974;53.606;9.872;2023-07-24T08:10:15;8.23;;;7.63;;
13805;SDS011;6974;53.606;9.872;2023-07-24T08:12:42;7.73;;;7.13;;
13805;SDS011;6974;53.606;9.872;2023-07-24T08:15:09;8.30;;;7.70;;
13805;SDS011;6974;53.606;9.872;2023-07-24T08:17:36;9.33;;;8.53;;
13805;SDS011;6974;53.606;9.872;2023-07-24T08:20:06;8.50;;;7.80;;
13805;SDS011;6974;53.606;9.872;2023-07-24T08:22:33;9.47;;;8.60;;
13805;SDS011;6974;53.606;9.872;2023-07-24T08:25:00;9.80;;;8.90;;
13805;SDS011;6974;53.606;9.872;2023-07-24T08:27:27;8.33;;;7.67;;
13805;SDS011;6974;53.606;9.872;2023-07-24T08:29:54;7.33;;;6.73;;
13805;SDS011;6974;53.606;9.872;2023-07-24T08:32:21;9.60;;;8.80;;
13805;SDS011;6974;53.606;9.872;2023-07-24T08:34:48;8.53;;;7.73;;
13805;SDS011;6974;53.606;9.872;2023-07-24T08:37:16;8.37;;;7.67;;
13805;SDS011;6974;53.606;9.872;2023-07-24T08:39:43;8.80;;;8.00;;
13805;SDS011;6974;53.606;9.872;2023-07-24T08:42:10;8.70;;;8.00;;
13805;SDS011;6974;53.606;9.872;2023-07-24T08:44:38;8.73;;;8.00;;
13805;SDS011;6974;53.606;9.872;2023-07-24T08:47:06;8.13;;;7.43;;
13805;SDS011;6974;53.606;9.872;2023-07-24T08:49:37;7.77;;;7.07;;
13805;SDS011;6974;53.606;9.872;2023-07-24T08:52:05;9.00;;;8.20;;
13805;SDS011;6974;53.606;9.872;2023-07-24T08:54:34;8.70;;;7.90;;
13805;SDS011;6974;53.606;9.872;2023-07-24T08:57:02;7.90;;;7.20;;
13805;SDS011;6974;53.606;9.872;2023-07-24T08:59:32;7.97;;;7.27;;
13805;SDS011;6974;53.606;9.872;2023-07-24T09:01:58;8.00;;;7.20;;
13805;SDS011;6974;53.606;9.872;2023-07-24T09:04:25;7.70;;;7.00;;
13805;SDS011;6974;53.606;9.872;2023-07-24T09:06:53;7.43;;;6.73;;
13805;SDS011;6974;53.606;9.872;2023-07-24T09:09:22;7.23;;;6.63;;
13805;SDS011;6974;53.606;9.872;2023-07-24T09:11:50;8.20;;;7.50;;
13805;SDS011;6974;53.606;9.872;2023-07-24T09:14:22;7.43;;;6.83;;
13805;SDS011;6974;53.606;9.872;2023-07-24T09:16:50;7.40;;;6.70;;
13805;SDS011;6974;53.606;9.872;2023-07-24T09:19:28;7.67;;;6.40;;
13805;SDS011;6974;53.606;9.872;2023-07-24T09:21:54;7.70;;;7.00;;
13805;SDS011;6974;53.606;9.872;2023-07-24T09:24:21;7.40;;;6.70;;
13805;SDS011;6974;53.606;9.872;2023-07-24T09:26:49;7.67;;;7.00;;
13805;SDS011;6974;53.606;9.872;2023-07-24T09:29:18;8.30;;;7.40;;
13805;SDS011;6974;53.606;9.872;2023-07-24T09:31:45;7.17;;;6.57;;
13805;SDS011;6974;53.606;9.872;2023-07-24T09:34:16;7.10;;;6.50;;
13805;SDS011;6974;53.606;9.872;2023-07-24T09:36:43;7.47;;;6.67;;
13805;SDS011;6974;53.606;9.872;2023-07-24T09:39:10;7.43;;;6.80;;
13805;SDS011;6974;53.606;9.872;2023-07-24T09:41:37;8.20;;;7.40;;
13805;SDS011;6974;53.606;9.872;2023-07-24T09:44:06;7.20;;;6.57;;
13805;SDS011;6974;53.606;9.872;2023-07-24T09:46:33;7.27;;;6.13;;
13805;SDS011;6974;53.606;9.872;2023-07-24T09:49:00;7.30;;;6.60;;
13805;SDS011;6974;53.606;9.872;2023-07-24T09:51:28;7.27;;;6.67;;
13805;SDS011;6974;53.606;9.872;2023-07-24T09:53:58;7.03;;;6.43;;
13805;SDS011;6974;53.606;9.872;2023-07-24T09:56:27;6.83;;;6.23;;
13805;SDS011;6974;53.606;9.872;2023-07-24T09:58:55;6.93;;;6.33;;
13805;SDS011;6974;53.606;9.872;2023-07-24T10:01:25;6.63;;;6.03;;
13805;SDS011;6974;53.606;9.872;2023-07-24T10:03:53;7.03;;;6.33;;
13805;SDS011;6974;53.606;9.872;2023-07-24T10:06:21;6.90;;;6.33;;
13805;SDS011;6974;53.606;9.872;2023-07-24T10:08:48;6.60;;;6.00;;
13805;SDS011;6974;53.606;9.872;2023-07-24T10:11:15;6.60;;;6.00;;
13805;SDS011;6974;53.606;9.872;2023-07-24T10:13:43;6.40;;;5.80;;
13805;SDS011;6974;53.606;9.872;2023-07-24T10:16:10;6.70;;;6.00;;
13805;SDS011;6974;53.606;9.872;2023-07-24T10:18:43;6.50;;;5.90;;
13805;SDS011;6974;53.606;9.872;2023-07-24T10:21:11;6.30;;;5.80;;
13805;SDS011;6974;53.606;9.872;2023-07-24T10:23:40;7.13;;;6.53;;
13805;SDS011;6974;53.606;9.872;2023-07-24T10:26:08;6.77;;;6.17;;
13805;SDS011;6974;53.606;9.872;2023-07-24T10:28:37;6.80;;;6.20;;
13805;SDS011;6974;53.606;9.872;2023-07-24T10:31:05;7.20;;;6.60;;
13805;SDS011;6974;53.606;9.872;2023-07-24T10:33:34;7.00;;;6.30;;
13805;SDS011;6974;53.606;9.872;2023-07-24T10:36:05;6.10;;;5.60;;
13805;SDS011;6974;53.606;9.872;2023-07-24T10:38:35;6.27;;;5.57;;
13805;SDS011;6974;53.606;9.872;2023-07-24T10:41:03;6.20;;;5.70;;
13805;SDS011;6974;53.606;9.872;2023-07-24T10:43:39;6.70;;;6.00;;
13805;SDS011;6974;53.606;9.872;2023-07-24T10:46:07;6.90;;;6.20;;
13805;SDS011;6974;53.606;9.872;2023-07-24T10:48:34;6.57;;;5.97;;
13805;SDS011;6974;53.606;9.872;2023-07-24T10:51:07;6.43;;;5.83;;
13805;SDS011;6974;53.606;9.872;2023-07-24T10:53:35;6.50;;;5.83;;
13805;SDS011;6974;53.606;9.872;2023-07-24T10:56:03;6.37;;;5.63;;
13805;SDS011;6974;53.606;9.872;2023-07-24T10:58:30;6.80;;;6.20;;
13805;SDS011;6974;53.606;9.872;2023-07-24T11:00:57;6.57;;;5.80;;
13805;SDS011;6974;53.606;9.872;2023-07-24T11:03:24;6.57;;;5.93;;
13805;SDS011;6974;53.606;9.872;2023-07-24T11:05:51;6.00;;;5.50;;
13805;SDS011;6974;53.606;9.872;2023-07-24T11:08:20;6.93;;;5.70;;
13805;SDS011;6974;53.606;9.872;2023-07-24T11:10:48;5.70;;;5.20;;
13805;SDS011;6974;53.606;9.872;2023-07-24T11:13:15;6.00;;;5.40;;
13805;SDS011;6974;53.606;9.872;2023-07-24T11:15:43;6.17;;;5.53;;
13805;SDS011;6974;53.606;9.872;2023-07-24T11:18:10;6.37;;;5.73;;
13805;SDS011;6974;53.606;9.872;2023-07-24T11:20:38;6.43;;;5.83;;
13805;SDS011;6974;53.606;9.872;2023-07-24T11:23:09;5.63;;;5.13;;
13805;SDS011;6974;53.606;9.872;2023-07-24T11:25:38;5.60;;;5.10;;
13805;SDS011;6974;53.606;9.872;2023-07-24T11:28:05;5.50;;;4.97;;
13805;SDS011;6974;53.606;9.872;2023-07-24T11:30:32;5.30;;;4.90;;
13805;SDS011;6974;53.606;9.872;2023-07-24T11:33:00;5.87;;;5.37;;
13805;SDS011;6974;53.606;9.872;2023-07-24T11:35:28;5.90;;;5.30;;
13805;SDS011;6974;53.606;9.872;2023-07-24T11:37:56;5.83;;;5.10;;
13805;SDS011;6974;53.606;9.872;2023-07-24T11:40:30;5.97;;;5.47;;
13805;SDS011;6974;53.606;9.872;2023-07-24T11:42:59;5.73;;;5.23;;
13805;SDS011;6974;53.606;9.872;2023-07-24T11:45:26;5.43;;;4.90;;
13805;SDS011;6974;53.606;9.872;2023-07-24T11:47:53;5.70;;;5.20;;
13805;SDS011;6974;53.606;9.872;2023-07-24T11:50:21;5.60;;;5.10;;
13805;SDS011;6974;53.606;9.872;2023-07-24T11:52:49;5.00;;;4.60;;
13805;SDS011;6974;53.606;9.872;2023-07-24T11:55:18;5.33;;;4.83;;
13805;SDS011;6974;53.606;9.872;2023-07-24T11:57:55;6.20;;;5.70;;
13805;SDS011;6974;53.606;9.872;2023-07-24T12:00:24;5.50;;;5.00;;
13805;SDS011;6974;53.606;9.872;2023-07-24T12:02:53;5.60;;;5.10;;
13805;SDS011;6974;53.606;9.872;2023-07-24T12:05:20;5.07;;;4.67;;
13805;SDS011;6974;53.606;9.872;2023-07-24T12:07:47;5.20;;;4.70;;
13805;SDS011;6974;53.606;9.872;2023-07-24T12:10:24;5.20;;;4.70;;
13805;SDS011;6974;53.606;9.872;2023-07-24T12:12:52;4.97;;;4.57;;
13805;SDS011;6974;53.606;9.872;2023-07-24T12:15:19;5.23;;;4.80;;
13805;SDS011;6974;53.606;9.872;2023-07-24T12:17:47;5.60;;;5.10;;
13805;SDS011;6974;53.606;9.872;2023-07-24T12:20:14;5.20;;;4.70;;
13805;SDS011;6974;53.606;9.872;2023-07-24T12:22:41;4.47;;;4.10;;
13805;SDS011;6974;53.606;9.872;2023-07-24T12:25:08;5.73;;;5.13;;
13805;SDS011;6974;53.606;9.872;2023-07-24T12:27:35;5.67;;;5.17;;
13805;SDS011;6974;53.606;9.872;2023-07-24T12:30:02;4.80;;;4.40;;
13805;SDS011;6974;53.606;9.872;2023-07-24T12:32:31;6.10;;;4.50;;
13805;SDS011;6974;53.606;9.872;2023-07-24T12:34:59;5.00;;;4.60;;
13805;SDS011;6974;53.606;9.872;2023-07-24T12:37:26;5.40;;;5.00;;
13805;SDS011;6974;53.606;9.872;2023-07-24T12:39:53;4.93;;;4.53;;
13805;SDS011;6974;53.606;9.872;2023-07-24T12:42:20;5.70;;;5.20;;
13805;SDS011;6974;53.606;9.872;2023-07-24T12:44:48;5.07;;;4.67;;
13805;SDS011;6974;53.606;9.872;2023-07-24T12:47:15;4.97;;;4.50;;
13805;SDS011;6974;53.606;9.872;2023-07-24T12:49:42;5.00;;;4.60;;
13805;SDS011;6974;53.606;9.872;2023-07-24T12:52:10;5.97;;;4.33;;
13805;SDS011;6974;53.606;9.872;2023-07-24T12:54:37;4.67;;;4.27;;
13805;SDS011;6974;53.606;9.872;2023-07-24T12:57:04;4.70;;;4.30;;
13805;SDS011;6974;53.606;9.872;2023-07-24T12:59:31;4.90;;;4.50;;
13805;SDS011;6974;53.606;9.872;2023-07-24T13:01:58;4.50;;;4.20;;
13805;SDS011;6974;53.606;9.872;2023-07-24T13:04:25;4.50;;;4.10;;
13805;SDS011;6974;53.606;9.872;2023-07-24T13:06:52;5.10;;;4.70;;
13805;SDS011;6974;53.606;9.872;2023-07-24T13:09:20;4.27;;;3.97;;
13805;SDS011;6974;53.606;9.872;2023-07-24T13:11:48;5.13;;;4.73;;
13805;SDS011;6974;53.606;9.872;2023-07-24T13:14:16;4.67;;;4.23;;
13805;SDS011;6974;53.606;9.872;2023-07-24T13:16:44;4.50;;;4.10;;
13805;SDS011;6974;53.606;9.872;2023-07-24T13:19:10;5.57;;;4.73;;
13805;SDS011;6974;53.606;9.872;2023-07-24T13:21:37;5.93;;;4.93;;
13805;SDS011;6974;53.606;9.872;2023-07-24T13:24:05;4.47;;;4.17;;
13805;SDS011;6974;53.606;9.872;2023-07-24T13:26:33;4.53;;;4.13;;
13805;SDS011;6974;53.606;9.872;2023-07-24T13:29:00;4.67;;;4.37;;
13805;SDS011;6974;53.606;9.872;2023-07-24T13:31:27;4.87;;;4.47;;
13805;SDS011;6974;53.606;9.872;2023-07-24T13:33:54;5.60;;;5.03;;
13805;SDS011;6974;53.606;9.872;2023-07-24T13:36:21;4.60;;;4.20;;
13805;SDS011;6974;53.606;9.872;2023-07-24T13:38:48;5.20;;;4.70;;
13805;SDS011;6974;53.606;9.872;2023-07-24T13:41:15;4.30;;;4.00;;
13805;SDS011;6974;53.606;9.872;2023-07-24T13:43:43;5.00;;;4.50;;
13805;SDS011;6974;53.606;9.872;2023-07-24T13:46:10;5.03;;;4.53;;
13805;SDS011;6974;53.606;9.872;2023-07-24T13:48:37;4.67;;;4.27;;
13805;SDS011;6974;53.606;9.872;2023-07-24T13:51:04;5.20;;;4.80;;
13805;SDS011;6974;53.606;9.872;2023-07-24T13:53:31;5.23;;;4.47;;
13805;SDS011;6974;53.606;9.872;2023-07-24T13:55:58;4.37;;;4.03;;
13805;SDS011;6974;53.606;9.872;2023-07-24T13:58:24;4.67;;;4.23;;
13805;SDS011;6974;53.606;9.872;2023-07-24T14:00:52;4.63;;;4.23;;
13805;SDS011;6974;53.606;9.872;2023-07-24T14:03:19;5.67;;;4.90;;
13805;SDS011;6974;53.606;9.872;2023-07-24T14:05:46;4.67;;;4.27;;
13805;SDS011;6974;53.606;9.872;2023-07-24T14:08:13;5.23;;;4.73;;
13805;SDS011;6974;53.606;9.872;2023-07-24T14:10:40;4.80;;;4.40;;
13805;SDS011;6974;53.606;9.872;2023-07-24T14:13:07;4.77;;;4.37;;
13805;SDS011;6974;53.606;9.872;2023-07-24T14:15:33;4.57;;;4.27;;
13805;SDS011;6974;53.606;9.872;2023-07-24T14:18:02;5.37;;;4.97;;
13805;SDS011;6974;53.606;9.872;2023-07-24T14:20:28;5.33;;;4.87;;
13805;SDS011;6974;53.606;9.872;2023-07-24T14:22:55;5.17;;;4.77;;
13805;SDS011;6974;53.606;9.872;2023-07-24T14:25:22;5.33;;;4.83;;
13805;SDS011;6974;53.606;9.872;2023-07-24T14:27:49;5.77;;;4.83;;
13805;SDS011;6974;53.606;9.872;2023-07-24T14:30:16;4.60;;;4.23;;
13805;SDS011;6974;53.606;9.872;2023-07-24T14:32:43;5.30;;;4.80;;
13805;SDS011;6974;53.606;9.872;2023-07-24T14:35:11;4.67;;;4.27;;
13805;SDS011;6974;53.606;9.872;2023-07-24T14:37:38;5.10;;;4.67;;
13805;SDS011;6974;53.606;9.872;2023-07-24T14:40:05;4.87;;;4.47;;
13805;SDS011;6974;53.606;9.872;2023-07-24T14:42:33;5.13;;;4.73;;
13805;SDS011;6974;53.606;9.872;2023-07-24T14:45:00;5.50;;;5.10;;
13805;SDS011;6974;53.606;9.872;2023-07-24T14:47:27;5.00;;;4.60;;
13805;SDS011;6974;53.606;9.872;2023-07-24T14:49:54;5.40;;;5.00;;
13805;SDS011;6974;53.606;9.872;2023-07-24T14:52:24;5.40;;;4.90;;
13805;SDS011;6974;53.606;9.872;2023-07-24T14:54:51;6.17;;;4.93;;
13805;SDS011;6974;53.606;9.872;2023-07-24T14:57:18;7.17;;;5.87;;
13805;SDS011;6974;53.606;9.872;2023-07-24T14:59:45;6.67;;;5.63;;
13805;SDS011;6974;53.606;9.872;2023-07-24T15:02:11;6.40;;;5.60;;